createdAt,value
2022-12-08T00:02:49.181Z,1.70
2022-12-08T00:07:09.994Z,1.80
2022-12-08T00:11:13.534Z,1.80
2022-12-08T00:15:16.724Z,1.90
2022-12-08T00:19:21.533Z,2.00
2022-12-08T00:23:24.595Z,2.10
2022-12-08T00:27:27.640Z,2.10
2022-12-08T00:31:30.970Z,2.20
2022-12-08T00:36:10.565Z,2.20
2022-12-08T00:40:13.676Z,2.30
2022-12-08T00:44:19.662Z,2.40
2022-12-08T00:48:22.673Z,2.40
2022-12-08T00:52:27.095Z,2.40
2022-12-08T00:56:30.084Z,2.40
2022-12-08T01:00:33.162Z,2.40
2022-12-08T01:05:09.806Z,2.40
2022-12-08T01:09:15.970Z,2.40
2022-12-08T01:13:18.976Z,2.50
2022-12-08T01:17:22.012Z,2.50
2022-12-08T01:21:25.208Z,2.50
2022-12-08T01:25:29.654Z,2.50
2022-12-08T01:29:32.867Z,2.50
2022-12-08T01:33:35.890Z,2.60
2022-12-08T01:37:38.928Z,2.60
2022-12-08T01:41:45.054Z,2.60
2022-12-08T01:45:48.871Z,2.60
2022-12-08T01:49:51.973Z,2.60
2022-12-08T01:53:55.419Z,2.60
2022-12-08T01:58:04.446Z,2.60
2022-12-08T02:02:07.624Z,2.60
2022-12-08T02:06:11.256Z,2.70
2022-12-08T02:10:20.536Z,2.70
2022-12-08T02:14:52.737Z,2.70
2022-12-08T02:19:30.366Z,2.70
2022-12-08T02:23:39.726Z,2.70
2022-12-08T02:27:53.716Z,2.80
2022-12-08T02:32:11.638Z,2.80
2022-12-08T02:36:22.036Z,2.80
2022-12-08T02:40:31.791Z,2.80
2022-12-08T02:44:39.069Z,2.80
2022-12-08T02:49:09.463Z,2.80
2022-12-08T02:57:29.685Z,2.80
2022-12-08T03:01:54.060Z,2.70
2022-12-08T03:06:06.932Z,2.70
2022-12-08T03:10:17.403Z,2.60
2022-12-08T03:14:22.965Z,2.60
2022-12-08T03:18:30.236Z,2.60
2022-12-08T03:22:34.108Z,2.50
2022-12-08T03:26:49.035Z,2.50
2022-12-08T03:30:56.958Z,2.40
2022-12-08T03:35:03.047Z,2.40
2022-12-08T03:39:06.132Z,2.50
2022-12-08T03:43:11.102Z,2.50
2022-12-08T03:47:14.218Z,2.50
2022-12-08T03:51:17.911Z,2.50
2022-12-08T03:55:21.625Z,2.50
2022-12-08T03:59:26.084Z,2.50
2022-12-08T04:03:29.095Z,2.60
2022-12-08T04:07:32.175Z,2.60
2022-12-08T04:11:35.440Z,2.50
2022-12-08T04:15:39.887Z,2.40
2022-12-08T04:19:43.498Z,2.30
2022-12-08T04:23:47.152Z,2.20
2022-12-08T04:27:50.250Z,2.10
2022-12-08T04:31:54.750Z,2.00
2022-12-08T04:35:57.924Z,1.90
2022-12-08T04:40:01.055Z,1.90
2022-12-08T04:44:04.487Z,1.80
2022-12-08T04:48:09.741Z,1.80
2022-12-08T04:52:13.003Z,1.80
2022-12-08T04:56:17.061Z,1.70
2022-12-08T05:00:20.953Z,1.50
2022-12-08T05:04:25.861Z,1.40
2022-12-08T05:08:29.470Z,1.40
2022-12-08T05:12:32.744Z,1.30
2022-12-08T05:16:54.012Z,1.30
2022-12-08T05:20:58.532Z,1.30
2022-12-08T05:25:01.738Z,1.20
2022-12-08T05:29:04.949Z,1.10
2022-12-08T05:33:08.889Z,1.00
2022-12-08T05:37:13.407Z,0.90
2022-12-08T05:41:19.690Z,0.80
2022-12-08T05:45:22.731Z,0.70
2022-12-08T05:49:25.948Z,0.50
2022-12-08T05:53:30.467Z,0.40
2022-12-08T05:57:33.554Z,0.30
2022-12-08T06:01:36.795Z,0.20
2022-12-08T06:05:40.022Z,0.10
2022-12-08T06:09:44.685Z,0.10
2022-12-08T06:14:21.072Z,0.00
2022-12-08T06:18:58.476Z,0.00
2022-12-08T06:23:35.294Z,-0.10
2022-12-08T06:28:13.644Z,-0.20
2022-12-08T06:32:47.536Z,-0.20
2022-12-08T06:36:50.613Z,-0.20
2022-12-08T06:40:55.970Z,-0.10
2022-12-08T06:45:31.003Z,-0.20
2022-12-08T06:50:05.438Z,-0.20
2022-12-08T06:54:39.420Z,-0.20
2022-12-08T06:59:17.685Z,-0.20
2022-12-08T07:03:22.138Z,-0.20
2022-12-08T07:07:55.835Z,-0.20
2022-12-08T07:12:32.847Z,-0.20
2022-12-08T07:17:09.834Z,-0.20
2022-12-08T07:21:46.452Z,-0.20
2022-12-08T07:26:24.926Z,-0.20
2022-12-08T07:30:58.950Z,-0.10
2022-12-08T07:35:35.570Z,-0.10
2022-12-08T07:39:38.688Z,0.00
2022-12-08T07:43:44.169Z,0.10
2022-12-08T07:48:18.448Z,0.30
2022-12-08T07:52:55.568Z,0.40
2022-12-08T07:57:32.268Z,0.60
2022-12-08T08:02:23.499Z,0.70
2022-12-08T08:06:48.014Z,0.80
2022-12-08T08:11:22.158Z,1.00
2022-12-08T08:16:03.904Z,1.10
2022-12-08T08:20:34.812Z,1.20
2022-12-08T08:25:12.896Z,1.30
2022-12-08T08:29:15.926Z,1.40
2022-12-08T08:33:18.978Z,1.50
2022-12-08T08:37:22.054Z,1.60
2022-12-08T08:41:58.926Z,1.70
2022-12-08T08:46:37.311Z,1.80
2022-12-08T08:51:11.753Z,1.90
2022-12-08T08:55:45.502Z,2.10
2022-12-08T09:00:22.349Z,2.20
2022-12-08T09:04:26.918Z,2.30
2022-12-08T09:09:01.031Z,2.40
2022-12-08T09:13:06.206Z,2.50
2022-12-08T09:17:39.891Z,2.60
2022-12-08T09:22:18.466Z,2.70
2022-12-08T09:26:52.204Z,2.80
2022-12-08T09:31:28.762Z,2.90
2022-12-08T09:36:06.076Z,3.00
2022-12-08T09:40:48.091Z,3.10
2022-12-08T09:44:59.949Z,3.30
2022-12-08T09:49:04.506Z,3.50
2022-12-08T09:53:40.444Z,3.60
2022-12-08T09:57:45.075Z,3.80
2022-12-08T10:02:22.171Z,3.80
2022-12-08T10:06:34.502Z,4.00
2022-12-08T10:10:43.113Z,4.20
2022-12-08T10:14:50.089Z,4.50
2022-12-08T10:19:23.951Z,4.70
2022-12-08T10:24:05.270Z,4.90
2022-12-08T10:28:10.684Z,4.80
2022-12-08T10:32:19.702Z,4.90
2022-12-08T10:36:22.774Z,4.90
2022-12-08T10:40:28.777Z,5.00
2022-12-08T10:45:05.267Z,5.20
2022-12-08T10:49:40.468Z,5.20
2022-12-08T10:54:25.793Z,5.30
2022-12-08T10:58:50.587Z,5.20
2022-12-08T11:03:29.441Z,5.10
2022-12-08T11:08:03.216Z,4.90
2022-12-08T11:12:18.837Z,4.60
2022-12-08T11:16:50.637Z,4.50
2022-12-08T11:21:37.252Z,4.40
2022-12-08T11:26:13.928Z,4.30
2022-12-08T11:30:44.705Z,4.30
2022-12-08T11:35:25.766Z,4.30
2022-12-08T11:39:30.802Z,4.30
2022-12-08T11:44:06.875Z,4.30
2022-12-08T11:48:40.260Z,4.30
2022-12-08T11:53:23.751Z,4.30
2022-12-08T11:57:51.936Z,4.30
2022-12-08T12:02:29.005Z,4.20
2022-12-08T12:07:26.822Z,4.00
2022-12-08T12:12:15.829Z,3.90
2022-12-08T12:16:51.878Z,3.90
2022-12-08T12:21:19.973Z,4.00
2022-12-08T12:25:52.364Z,4.10
2022-12-08T12:29:59.278Z,4.10
2022-12-08T12:34:34.516Z,4.20
2022-12-08T12:39:20.897Z,4.20
2022-12-08T12:44:06.542Z,4.30
2022-12-08T12:49:04.244Z,4.40
2022-12-08T12:53:44.617Z,4.40
2022-12-08T12:57:54.690Z,4.50
2022-12-08T13:02:25.863Z,4.60
2022-12-08T13:06:37.007Z,4.70
2022-12-08T13:10:41.429Z,4.70
2022-12-08T13:15:23.120Z,4.50
2022-12-08T13:19:53.698Z,4.40
2022-12-08T13:24:32.383Z,4.30
2022-12-08T13:29:12.538Z,4.20
2022-12-08T13:33:50.929Z,4.10
2022-12-08T13:38:27.548Z,4.10
2022-12-08T13:43:01.932Z,4.00
2022-12-08T13:47:41.453Z,4.10
2022-12-08T13:57:06.783Z,4.10
2022-12-08T14:01:13.974Z,4.10
2022-12-08T14:10:48.302Z,3.90
2022-12-08T14:15:03.013Z,3.90
2022-12-08T14:19:12.472Z,3.80
2022-12-08T14:23:18.743Z,3.90
2022-12-08T14:27:25.532Z,3.80
2022-12-08T14:31:59.222Z,3.70
2022-12-08T14:36:36.422Z,3.60
2022-12-08T14:40:41.382Z,3.50
2022-12-08T14:44:46.473Z,3.50
2022-12-08T14:48:49.573Z,3.40
2022-12-08T14:53:26.583Z,3.30
2022-12-08T14:57:35.892Z,3.10
2022-12-08T15:02:21.869Z,3.00
2022-12-08T15:06:26.366Z,2.80
2022-12-08T15:10:32.065Z,2.70
2022-12-08T15:15:16.849Z,2.40
2022-12-08T15:19:41.713Z,2.20
2022-12-08T15:23:47.316Z,2.00
2022-12-08T15:28:29.409Z,2.00
2022-12-08T15:32:33.193Z,2.00
2022-12-08T15:36:38.393Z,1.90
2022-12-08T15:41:15.189Z,1.80
2022-12-08T15:45:20.353Z,1.70
2022-12-08T15:49:25.240Z,1.60
2022-12-08T15:53:28.236Z,1.60
2022-12-08T15:58:30.762Z,1.50
2022-12-08T16:01:57.948Z,1.40
2022-12-08T16:07:12.805Z,1.30
2022-12-08T16:12:04.105Z,1.20
2022-12-08T16:15:55.118Z,1.00
2022-12-08T16:20:05.751Z,0.80
2022-12-08T16:24:09.600Z,0.80
2022-12-08T16:28:53.757Z,0.60
2022-12-08T16:32:57.570Z,0.60
2022-12-08T16:37:35.925Z,0.60
2022-12-08T16:41:56.545Z,0.70
2022-12-08T16:45:59.610Z,0.80
2022-12-08T16:50:05.986Z,0.90
2022-12-08T16:54:10.759Z,1.00
2022-12-08T16:58:44.466Z,1.10
2022-12-08T17:02:47.807Z,1.20
2022-12-08T17:07:21.722Z,1.40
2022-12-08T17:11:28.576Z,1.50
2022-12-08T17:15:31.614Z,1.60
2022-12-08T17:19:35.026Z,1.70
2022-12-08T17:23:38.513Z,1.70
2022-12-08T17:27:43.373Z,1.80
2022-12-08T17:31:46.468Z,1.90
2022-12-08T17:35:50.060Z,1.90
2022-12-08T17:39:53.201Z,1.90
2022-12-08T17:43:57.831Z,1.90
2022-12-08T17:48:00.865Z,2.00
2022-12-08T17:52:37.942Z,2.00
2022-12-08T17:56:40.960Z,1.90
2022-12-08T18:00:45.383Z,1.90
2022-12-08T18:05:19.143Z,2.00
2022-12-08T18:09:22.253Z,1.90
2022-12-08T18:13:25.922Z,1.90
2022-12-08T18:18:04.298Z,1.90
2022-12-08T18:22:07.508Z,2.00
2022-12-08T18:26:12.970Z,2.00
2022-12-08T18:30:18.402Z,1.90
2022-12-08T18:34:53.945Z,1.90
2022-12-08T18:38:57.185Z,1.90
2022-12-08T18:43:00.437Z,1.90
2022-12-08T18:47:03.503Z,1.90
2022-12-08T18:51:41.539Z,1.90
2022-12-08T18:55:46.743Z,1.80
2022-12-08T18:59:49.882Z,1.80
2022-12-08T19:04:20.102Z,1.80
2022-12-08T19:08:32.452Z,1.80
2022-12-08T19:13:07.171Z,1.90
2022-12-08T19:17:44.102Z,1.90
2022-12-08T19:21:47.093Z,1.90
2022-12-08T19:31:11.352Z,1.90
2022-12-08T19:35:50.715Z,1.90
2022-12-08T19:40:37.731Z,1.90
2022-12-08T19:44:55.892Z,2.00
2022-12-08T19:49:18.666Z,2.00
2022-12-08T19:53:52.697Z,2.00
2022-12-08T19:58:29.483Z,2.00
2022-12-08T20:03:06.581Z,2.00
2022-12-08T20:07:13.962Z,2.00
2022-12-08T20:11:17.030Z,2.00
2022-12-08T20:15:20.064Z,2.00
2022-12-08T20:19:23.116Z,2.00
2022-12-08T20:23:59.998Z,2.00
2022-12-08T20:28:04.847Z,2.00
2022-12-08T20:32:08.165Z,2.00
2022-12-08T20:36:45.042Z,1.90
2022-12-08T20:40:49.708Z,2.00
2022-12-08T20:44:54.201Z,2.00
2022-12-08T20:48:57.929Z,2.00
2022-12-08T20:53:01.037Z,2.00
2022-12-08T20:57:37.658Z,2.00
2022-12-08T21:01:42.295Z,2.10
2022-12-08T21:06:16.638Z,2.10
2022-12-08T21:10:54.165Z,2.10
2022-12-08T21:14:57.392Z,2.20
2022-12-08T21:19:02.048Z,2.20
2022-12-08T21:23:36.294Z,2.20
2022-12-08T21:27:40.032Z,2.20
2022-12-08T21:32:14.084Z,2.10
2022-12-08T21:36:21.838Z,2.20
2022-12-08T21:40:25.123Z,2.20
2022-12-08T21:44:29.388Z,2.10
2022-12-08T21:49:06.436Z,2.10
2022-12-08T21:53:10.987Z,2.10
2022-12-08T21:57:14.666Z,2.00
2022-12-08T22:01:49.402Z,2.00
2022-12-08T22:05:52.859Z,1.80
2022-12-08T22:09:57.536Z,1.80
2022-12-08T22:14:00.701Z,1.60
2022-12-08T22:18:04.816Z,1.50
2022-12-08T22:22:07.978Z,1.50
2022-12-08T22:26:13.073Z,1.50
2022-12-08T22:30:16.361Z,1.60
2022-12-08T22:34:19.561Z,1.60
2022-12-08T22:38:56.503Z,1.70
2022-12-08T22:43:00.934Z,1.70
2022-12-08T22:47:04.216Z,1.80
2022-12-08T22:51:40.735Z,1.90
2022-12-08T22:55:44.737Z,1.90
2022-12-08T22:59:49.436Z,2.00
2022-12-08T23:03:52.649Z,2.00
2022-12-08T23:07:56.178Z,2.10
2022-12-08T23:11:59.301Z,2.10
2022-12-08T23:16:35.437Z,2.10
2022-12-08T23:20:38.746Z,2.10
2022-12-08T23:24:41.925Z,2.10
2022-12-08T23:28:45.301Z,2.10
2022-12-08T23:32:50.071Z,2.10
2022-12-08T23:36:53.253Z,2.10
2022-12-08T23:40:56.365Z,2.20
2022-12-08T23:44:59.434Z,2.10
2022-12-08T23:49:03.908Z,2.00
2022-12-08T23:53:41.229Z,1.90
2022-12-08T23:57:44.599Z,1.90
